Hollow Rock, Tennessee
Current Conditions -  °F | °C
As of 10:35 AM on Tuesday 21 Oct 2014 (Local Time) from KPHT Reporting Station
Clear Clear  
Wind Chill: 63°   Ceiling: Unl
Heat Index: 63°   Visibility: 10mi
Dew Point: 46°   Wind: 5mph
Humidity: 55%   Direction: NA
Pressure: 30.1"   Gusts: NA
Location:  36.04°N, 88.27°W
Report Text: KPHT 211535Z AUTO VRB04KT 10SM CLR 17/08 A3010 RMK
Loading
Personal Weather Stations






























Interactive Weather Map
Tropical Storm Tracking
New forecast layout! Learn more

10-Day Weather Forecast

Advertisements
Track Severe Weather on mobile